Terminal Aerodrome Forecast
Issued by NWS

Home | Current Version | Previous Version | Text Only | Print | Product List | Glossary On
Versions: 1 2 3 4 5 6 7 8 9 10 11 12 13 14 15 16 17
000
FTUS44 KEWX 130500
TAFSSF
TAF
KSSF 130523Z 1306/1406 02010G20KT P6SM BKN015 OVC090
     FM131300 03010G20KT P6SM OVC040 PROB30 1315/1318 5SM -TSRA
      OVC040CB
     FM132100 04010KT P6SM OVC040 PROB30 1321/1324 -TSRA OVC040CB=

USA.gov is the U.S. government's official web portal to all federal, state and local government web resources and services.